Sacramento Mather Airport
KMHR : now visible

Airfield :











YOU CAN JOIN US ON...

 
LOGIN :

Register | Disclaimer

   EN    FR    IT 

 









Legend :    VFR   Marginal VFR   IFR   Intensive IFR   Very Intensive IFR
Visi :
Ceiling :
>= 8 km
>= 3000ft
5 to 8 km
1000 to 3000 ft
1500m to 5 km
500 to 1000 ft
800 to 1500m
200 to 500 ft
< 800m
< 200 ft
Symbols :   Thunderstorms  Fog  Heavy snow  Heavy precipitations  Wind > 20 kt






- Airport Elevation : 99 ft


KMHR - Sacramento Mather

CURRENT METAR :
  • 072050Z 00000KT 10SM SCT041 17/07 A3008

EXPIRED METARs :
  • 071945Z 00000KT 10SM BKN037 16/07 A3009
  • 071855Z 3010KT 10SM FEW100 14/08 A3010

TAF KMHR
Valid from the 07 at 18:00 until the 08 at 18:00 UTC


071733Z 0718/0818 VRB04KT P6SM BKN100
FM072200 VRB04KT P6SM SCT100
FM081200 17004KT P6SM BKN250



MET'MAP, your aeronautical weather chart ! - Copyright ORBIFLY December 2007 - Disclaimer

ORBIFLY MET'MAP TEAM :

Programming & Development : Alexandra Zaïnal
Concept & original design : Baudouin d'Aumeries
Assistance for programming : Marc-Olivier Méhu
Technical & hardware support : Manuel Goepfert

Contact : metmap@orbifly.com




SOURCES & CREDITS :

   NOAA       Earth
Advisory